sensor_id;sensor_type;location;lat;lon;timestamp;temperature;humidity
7846;DHT22;3968;51.424;6.788;2023-09-19T00:01:28;17.80;99.90
7846;DHT22;3968;51.424;6.788;2023-09-19T00:03:56;17.70;99.90
7846;DHT22;3968;51.424;6.788;2023-09-19T00:06:23;17.70;99.90
7846;DHT22;3968;51.424;6.788;2023-09-19T00:08:52;17.70;99.90
7846;DHT22;3968;51.424;6.788;2023-09-19T00:11:17;17.60;99.90
7846;DHT22;3968;51.424;6.788;2023-09-19T00:13:43;17.60;99.90
7846;DHT22;3968;51.424;6.788;2023-09-19T00:16:10;17.60;99.90
7846;DHT22;3968;51.424;6.788;2023-09-19T00:18:37;17.60;99.90
7846;DHT22;3968;51.424;6.788;2023-09-19T00:21:03;17.60;99.90
7846;DHT22;3968;51.424;6.788;2023-09-19T00:23:30;17.60;99.90
7846;DHT22;3968;51.424;6.788;2023-09-19T00:25:59;17.60;99.90
7846;DHT22;3968;51.424;6.788;2023-09-19T00:28:26;17.50;99.90
7846;DHT22;3968;51.424;6.788;2023-09-19T00:30:52;17.60;99.90
7846;DHT22;3968;51.424;6.788;2023-09-19T00:33:20;17.60;99.90
7846;DHT22;3968;51.424;6.788;2023-09-19T00:35:53;17.60;99.90
7846;DHT22;3968;51.424;6.788;2023-09-19T00:38:19;17.50;99.90
7846;DHT22;3968;51.424;6.788;2023-09-19T00:40:52;17.50;99.90
7846;DHT22;3968;51.424;6.788;2023-09-19T00:43:19;17.50;99.90
7846;DHT22;3968;51.424;6.788;2023-09-19T00:45:47;17.50;99.90
7846;DHT22;3968;51.424;6.788;2023-09-19T00:48:14;17.50;99.90
7846;DHT22;3968;51.424;6.788;2023-09-19T00:50:42;17.40;99.90
7846;DHT22;3968;51.424;6.788;2023-09-19T00:53:09;17.40;99.90
7846;DHT22;3968;51.424;6.788;2023-09-19T00:55:39;17.40;99.90
7846;DHT22;3968;51.424;6.788;2023-09-19T00:58:08;17.40;99.90
7846;DHT22;3968;51.424;6.788;2023-09-19T01:00:37;17.40;99.90
7846;DHT22;3968;51.424;6.788;2023-09-19T01:03:04;17.30;99.90
7846;DHT22;3968;51.424;6.788;2023-09-19T01:05:32;17.30;99.90
7846;DHT22;3968;51.424;6.788;2023-09-19T01:07:58;17.30;99.90
7846;DHT22;3968;51.424;6.788;2023-09-19T01:10:24;17.30;99.90
7846;DHT22;3968;51.424;6.788;2023-09-19T01:20:45;17.30;99.90
7846;DHT22;3968;51.424;6.788;2023-09-19T01:29:33;17.10;99.90
7846;DHT22;3968;51.424;6.788;2023-09-19T01:32:04;17.10;99.90
7846;DHT22;3968;51.424;6.788;2023-09-19T01:34:53;17.20;99.90
7846;DHT22;3968;51.424;6.788;2023-09-19T01:37:21;17.10;99.90
7846;DHT22;3968;51.424;6.788;2023-09-19T01:39:58;17.10;99.90
7846;DHT22;3968;51.424;6.788;2023-09-19T01:46:03;17.00;99.90
7846;DHT22;3968;51.424;6.788;2023-09-19T01:52:30;17.00;99.90
7846;DHT22;3968;51.424;6.788;2023-09-19T01:54:41;17.00;99.90
7846;DHT22;3968;51.424;6.788;2023-09-19T01:57:22;17.00;99.90
7846;DHT22;3968;51.424;6.788;2023-09-19T01:59:59;17.00;99.90
7846;DHT22;3968;51.424;6.788;2023-09-19T02:02:27;16.90;99.90
7846;DHT22;3968;51.424;6.788;2023-09-19T02:04:54;16.90;99.90
7846;DHT22;3968;51.424;6.788;2023-09-19T02:07:20;16.90;99.90
7846;DHT22;3968;51.424;6.788;2023-09-19T02:09:46;16.90;99.90
7846;DHT22;3968;51.424;6.788;2023-09-19T02:12:13;16.80;99.90
7846;DHT22;3968;51.424;6.788;2023-09-19T02:14:41;16.80;99.90
7846;DHT22;3968;51.424;6.788;2023-09-19T02:17:06;16.80;99.90
7846;DHT22;3968;51.424;6.788;2023-09-19T02:19:33;16.80;99.90
7846;DHT22;3968;51.424;6.788;2023-09-19T02:21:59;16.80;99.90
7846;DHT22;3968;51.424;6.788;2023-09-19T02:24:25;16.80;99.90
7846;DHT22;3968;51.424;6.788;2023-09-19T02:26:52;16.80;99.90
7846;DHT22;3968;51.424;6.788;2023-09-19T02:29:18;16.80;99.90
7846;DHT22;3968;51.424;6.788;2023-09-19T02:31:43;16.80;99.90
7846;DHT22;3968;51.424;6.788;2023-09-19T02:34:11;16.70;99.90
7846;DHT22;3968;51.424;6.788;2023-09-19T02:36:37;16.80;99.90
7846;DHT22;3968;51.424;6.788;2023-09-19T02:39:03;16.70;99.90
7846;DHT22;3968;51.424;6.788;2023-09-19T02:41:30;16.70;99.90
7846;DHT22;3968;51.424;6.788;2023-09-19T02:43:58;16.70;99.90
7846;DHT22;3968;51.424;6.788;2023-09-19T02:46:24;16.70;99.90
7846;DHT22;3968;51.424;6.788;2023-09-19T02:48:50;16.70;99.90
7846;DHT22;3968;51.424;6.788;2023-09-19T02:51:15;16.70;99.90
7846;DHT22;3968;51.424;6.788;2023-09-19T02:53:41;16.70;99.90
7846;DHT22;3968;51.424;6.788;2023-09-19T02:56:07;16.70;99.90
7846;DHT22;3968;51.424;6.788;2023-09-19T02:58:35;16.70;99.90
7846;DHT22;3968;51.424;6.788;2023-09-19T03:01:08;16.60;99.90
7846;DHT22;3968;51.424;6.788;2023-09-19T03:03:34;16.70;99.90
7846;DHT22;3968;51.424;6.788;2023-09-19T03:05:59;16.60;99.90
7846;DHT22;3968;51.424;6.788;2023-09-19T03:08:29;16.60;99.90
7846;DHT22;3968;51.424;6.788;2023-09-19T03:10:55;16.70;99.90
7846;DHT22;3968;51.424;6.788;2023-09-19T03:13:20;16.70;99.90
7846;DHT22;3968;51.424;6.788;2023-09-19T03:15:46;16.60;99.90
7846;DHT22;3968;51.424;6.788;2023-09-19T03:18:15;16.60;99.90
7846;DHT22;3968;51.424;6.788;2023-09-19T03:20:41;16.60;99.90
7846;DHT22;3968;51.424;6.788;2023-09-19T03:23:07;16.60;99.90
7846;DHT22;3968;51.424;6.788;2023-09-19T03:25:34;16.60;99.90
7846;DHT22;3968;51.424;6.788;2023-09-19T03:28:01;16.60;99.90
7846;DHT22;3968;51.424;6.788;2023-09-19T03:30:31;16.60;99.90
7846;DHT22;3968;51.424;6.788;2023-09-19T03:32:58;16.60;99.90
7846;DHT22;3968;51.424;6.788;2023-09-19T03:35:23;16.60;99.90
7846;DHT22;3968;51.424;6.788;2023-09-19T03:37:49;16.60;99.90
7846;DHT22;3968;51.424;6.788;2023-09-19T03:40:15;16.50;99.90
7846;DHT22;3968;51.424;6.788;2023-09-19T03:42:42;16.50;99.90
7846;DHT22;3968;51.424;6.788;2023-09-19T03:45:08;16.50;99.90
7846;DHT22;3968;51.424;6.788;2023-09-19T03:47:38;16.50;99.90
7846;DHT22;3968;51.424;6.788;2023-09-19T03:50:05;16.50;99.90
7846;DHT22;3968;51.424;6.788;2023-09-19T03:52:32;16.50;99.90
7846;DHT22;3968;51.424;6.788;2023-09-19T03:54:58;16.50;99.90
7846;DHT22;3968;51.424;6.788;2023-09-19T03:57:23;16.50;99.90
7846;DHT22;3968;51.424;6.788;2023-09-19T03:59:49;16.50;99.90
7846;DHT22;3968;51.424;6.788;2023-09-19T04:02:15;16.40;99.90
7846;DHT22;3968;51.424;6.788;2023-09-19T04:04:48;16.40;99.90
7846;DHT22;3968;51.424;6.788;2023-09-19T04:07:14;16.40;99.90
7846;DHT22;3968;51.424;6.788;2023-09-19T04:09:39;16.40;99.90
7846;DHT22;3968;51.424;6.788;2023-09-19T04:12:05;16.40;99.90
7846;DHT22;3968;51.424;6.788;2023-09-19T04:14:31;16.40;99.90
7846;DHT22;3968;51.424;6.788;2023-09-19T04:16:56;16.40;99.90
7846;DHT22;3968;51.424;6.788;2023-09-19T04:19:22;16.40;99.90
7846;DHT22;3968;51.424;6.788;2023-09-19T04:21:47;16.40;99.90
7846;DHT22;3968;51.424;6.788;2023-09-19T04:24:13;16.50;99.90
7846;DHT22;3968;51.424;6.788;2023-09-19T04:26:39;16.40;99.90
7846;DHT22;3968;51.424;6.788;2023-09-19T04:29:05;16.40;99.90
7846;DHT22;3968;51.424;6.788;2023-09-19T04:31:31;16.40;99.90
7846;DHT22;3968;51.424;6.788;2023-09-19T04:33:57;16.40;99.90
7846;DHT22;3968;51.424;6.788;2023-09-19T04:36:24;16.40;99.90
7846;DHT22;3968;51.424;6.788;2023-09-19T04:38:50;16.40;99.90
7846;DHT22;3968;51.424;6.788;2023-09-19T04:41:15;16.40;99.90
7846;DHT22;3968;51.424;6.788;2023-09-19T04:43:41;16.40;99.90
7846;DHT22;3968;51.424;6.788;2023-09-19T04:46:07;16.40;99.90
7846;DHT22;3968;51.424;6.788;2023-09-19T04:48:33;16.40;99.90
7846;DHT22;3968;51.424;6.788;2023-09-19T04:51:00;16.40;99.90
7846;DHT22;3968;51.424;6.788;2023-09-19T04:53:26;16.30;99.90
7846;DHT22;3968;51.424;6.788;2023-09-19T04:55:53;16.30;99.90
7846;DHT22;3968;51.424;6.788;2023-09-19T04:58:21;16.30;99.90
7846;DHT22;3968;51.424;6.788;2023-09-19T05:00:47;16.30;99.90
7846;DHT22;3968;51.424;6.788;2023-09-19T05:03:12;16.30;99.90
7846;DHT22;3968;51.424;6.788;2023-09-19T05:05:38;16.40;99.90
7846;DHT22;3968;51.424;6.788;2023-09-19T05:08:04;16.40;99.90
7846;DHT22;3968;51.424;6.788;2023-09-19T05:10:32;16.40;99.90
7846;DHT22;3968;51.424;6.788;2023-09-19T05:12:57;16.30;99.90
7846;DHT22;3968;51.424;6.788;2023-09-19T05:15:23;16.30;99.90
7846;DHT22;3968;51.424;6.788;2023-09-19T05:17:49;16.30;99.90
7846;DHT22;3968;51.424;6.788;2023-09-19T05:20:20;16.30;99.90
7846;DHT22;3968;51.424;6.788;2023-09-19T05:23:03;16.30;99.90
7846;DHT22;3968;51.424;6.788;2023-09-19T05:25:33;16.30;99.90
7846;DHT22;3968;51.424;6.788;2023-09-19T05:28:03;16.30;99.90
7846;DHT22;3968;51.424;6.788;2023-09-19T05:30:32;16.30;99.90
7846;DHT22;3968;51.424;6.788;2023-09-19T05:32:58;16.30;99.90
7846;DHT22;3968;51.424;6.788;2023-09-19T05:35:24;16.40;99.90
7846;DHT22;3968;51.424;6.788;2023-09-19T05:37:53;16.40;99.90
7846;DHT22;3968;51.424;6.788;2023-09-19T05:40:20;16.40;99.90
7846;DHT22;3968;51.424;6.788;2023-09-19T05:42:47;16.40;99.90
7846;DHT22;3968;51.424;6.788;2023-09-19T05:45:13;16.40;99.90
7846;DHT22;3968;51.424;6.788;2023-09-19T05:47:42;16.50;99.90
7846;DHT22;3968;51.424;6.788;2023-09-19T05:50:10;16.50;99.90
7846;DHT22;3968;51.424;6.788;2023-09-19T05:52:37;16.50;99.90
7846;DHT22;3968;51.424;6.788;2023-09-19T05:55:04;16.50;99.90
7846;DHT22;3968;51.424;6.788;2023-09-19T05:57:32;16.50;99.90
7846;DHT22;3968;51.424;6.788;2023-09-19T05:59:58;16.60;99.90
7846;DHT22;3968;51.424;6.788;2023-09-19T06:02:23;16.60;99.90
7846;DHT22;3968;51.424;6.788;2023-09-19T06:04:52;16.60;99.90
7846;DHT22;3968;51.424;6.788;2023-09-19T06:07:18;16.60;99.90
7846;DHT22;3968;51.424;6.788;2023-09-19T06:09:44;16.60;99.90
7846;DHT22;3968;51.424;6.788;2023-09-19T06:12:09;16.60;99.90
7846;DHT22;3968;51.424;6.788;2023-09-19T06:14:39;16.60;99.90
7846;DHT22;3968;51.424;6.788;2023-09-19T06:17:05;16.70;99.90
7846;DHT22;3968;51.424;6.788;2023-09-19T06:19:31;16.70;99.90
7846;DHT22;3968;51.424;6.788;2023-09-19T06:21:58;16.70;99.90
7846;DHT22;3968;51.424;6.788;2023-09-19T06:24:24;16.70;99.90
7846;DHT22;3968;51.424;6.788;2023-09-19T06:26:51;16.80;99.90
7846;DHT22;3968;51.424;6.788;2023-09-19T06:29:18;16.80;99.90
7846;DHT22;3968;51.424;6.788;2023-09-19T06:31:46;16.80;99.90
7846;DHT22;3968;51.424;6.788;2023-09-19T06:34:12;16.80;99.90
7846;DHT22;3968;51.424;6.788;2023-09-19T06:36:39;16.80;99.90
7846;DHT22;3968;51.424;6.788;2023-09-19T06:39:06;16.90;99.90
7846;DHT22;3968;51.424;6.788;2023-09-19T06:41:32;16.90;99.90
7846;DHT22;3968;51.424;6.788;2023-09-19T06:43:57;16.90;99.90
7846;DHT22;3968;51.424;6.788;2023-09-19T06:46:23;17.00;99.90
7846;DHT22;3968;51.424;6.788;2023-09-19T06:48:50;17.00;99.90
7846;DHT22;3968;51.424;6.788;2023-09-19T06:51:18;17.00;99.90
7846;DHT22;3968;51.424;6.788;2023-09-19T06:53:43;17.00;99.90
7846;DHT22;3968;51.424;6.788;2023-09-19T06:56:09;17.10;99.90
7846;DHT22;3968;51.424;6.788;2023-09-19T06:58:35;17.10;99.90
7846;DHT22;3968;51.424;6.788;2023-09-19T07:01:02;17.10;99.90
7846;DHT22;3968;51.424;6.788;2023-09-19T07:03:28;17.10;99.90
7846;DHT22;3968;51.424;6.788;2023-09-19T07:05:54;17.10;99.90
7846;DHT22;3968;51.424;6.788;2023-09-19T07:08:21;17.10;99.90
7846;DHT22;3968;51.424;6.788;2023-09-19T07:10:47;17.10;99.90
7846;DHT22;3968;51.424;6.788;2023-09-19T07:13:18;17.10;99.90
7846;DHT22;3968;51.424;6.788;2023-09-19T07:15:44;17.20;99.90
7846;DHT22;3968;51.424;6.788;2023-09-19T07:18:14;17.20;99.90
7846;DHT22;3968;51.424;6.788;2023-09-19T07:20:42;17.30;99.90
7846;DHT22;3968;51.424;6.788;2023-09-19T07:23:11;17.40;99.90
7846;DHT22;3968;51.424;6.788;2023-09-19T07:25:39;17.50;99.90
7846;DHT22;3968;51.424;6.788;2023-09-19T07:28:05;17.60;99.90
7846;DHT22;3968;51.424;6.788;2023-09-19T07:30:31;17.70;99.90
7846;DHT22;3968;51.424;6.788;2023-09-19T07:32:56;17.70;99.90
7846;DHT22;3968;51.424;6.788;2023-09-19T07:35:22;17.80;99.90
7846;DHT22;3968;51.424;6.788;2023-09-19T07:37:49;17.90;99.90
7846;DHT22;3968;51.424;6.788;2023-09-19T07:40:15;18.00;99.90
7846;DHT22;3968;51.424;6.788;2023-09-19T07:42:41;18.00;99.90
7846;DHT22;3968;51.424;6.788;2023-09-19T07:45:10;18.10;99.90
7846;DHT22;3968;51.424;6.788;2023-09-19T07:47:43;18.20;99.90
7846;DHT22;3968;51.424;6.788;2023-09-19T07:50:09;18.20;99.90
7846;DHT22;3968;51.424;6.788;2023-09-19T07:52:35;18.20;99.90
7846;DHT22;3968;51.424;6.788;2023-09-19T07:55:00;18.20;99.90
7846;DHT22;3968;51.424;6.788;2023-09-19T07:57:31;18.20;99.90
7846;DHT22;3968;51.424;6.788;2023-09-19T08:00:00;18.20;99.90
7846;DHT22;3968;51.424;6.788;2023-09-19T08:02:25;18.10;99.90
7846;DHT22;3968;51.424;6.788;2023-09-19T08:04:51;18.10;99.90
7846;DHT22;3968;51.424;6.788;2023-09-19T08:07:17;18.10;99.90
7846;DHT22;3968;51.424;6.788;2023-09-19T08:09:43;18.10;99.90
7846;DHT22;3968;51.424;6.788;2023-09-19T08:12:14;18.10;99.90
7846;DHT22;3968;51.424;6.788;2023-09-19T08:14:40;18.10;99.90
7846;DHT22;3968;51.424;6.788;2023-09-19T08:17:09;18.10;99.90
7846;DHT22;3968;51.424;6.788;2023-09-19T08:19:34;18.10;99.90
7846;DHT22;3968;51.424;6.788;2023-09-19T08:22:01;18.10;99.90
7846;DHT22;3968;51.424;6.788;2023-09-19T08:24:29;18.10;99.90
7846;DHT22;3968;51.424;6.788;2023-09-19T08:26:55;18.10;99.90
7846;DHT22;3968;51.424;6.788;2023-09-19T08:29:22;18.20;99.90
7846;DHT22;3968;51.424;6.788;2023-09-19T08:31:56;18.20;99.90
7846;DHT22;3968;51.424;6.788;2023-09-19T08:34:25;18.30;99.90
7846;DHT22;3968;51.424;6.788;2023-09-19T08:36:55;18.20;99.90
7846;DHT22;3968;51.424;6.788;2023-09-19T08:39:24;18.20;99.90
7846;DHT22;3968;51.424;6.788;2023-09-19T08:42:00;18.20;99.90
7846;DHT22;3968;51.424;6.788;2023-09-19T08:44:27;18.30;99.90
7846;DHT22;3968;51.424;6.788;2023-09-19T08:47:15;18.30;99.90
7846;DHT22;3968;51.424;6.788;2023-09-19T08:49:56;18.30;99.90
7846;DHT22;3968;51.424;6.788;2023-09-19T08:52:28;18.30;99.90
7846;DHT22;3968;51.424;6.788;2023-09-19T08:54:59;18.40;99.90
7846;DHT22;3968;51.424;6.788;2023-09-19T08:57:33;18.40;99.90
7846;DHT22;3968;51.424;6.788;2023-09-19T09:00:02;18.40;99.90
7846;DHT22;3968;51.424;6.788;2023-09-19T09:02:31;18.50;99.90
7846;DHT22;3968;51.424;6.788;2023-09-19T09:04:59;18.50;99.90
7846;DHT22;3968;51.424;6.788;2023-09-19T09:07:25;18.50;99.90
7846;DHT22;3968;51.424;6.788;2023-09-19T09:09:53;18.50;99.90
7846;DHT22;3968;51.424;6.788;2023-09-19T09:12:19;18.50;99.90
7846;DHT22;3968;51.424;6.788;2023-09-19T09:14:46;18.60;99.90
7846;DHT22;3968;51.424;6.788;2023-09-19T09:17:16;18.60;99.90
7846;DHT22;3968;51.424;6.788;2023-09-19T09:19:46;18.60;99.90
7846;DHT22;3968;51.424;6.788;2023-09-19T09:22:13;18.60;99.90
7846;DHT22;3968;51.424;6.788;2023-09-19T09:24:55;18.70;99.90
7846;DHT22;3968;51.424;6.788;2023-09-19T09:27:23;18.70;99.90
7846;DHT22;3968;51.424;6.788;2023-09-19T09:29:50;18.60;99.90
7846;DHT22;3968;51.424;6.788;2023-09-19T09:34:51;18.80;99.90
7846;DHT22;3968;51.424;6.788;2023-09-19T09:37:18;18.80;99.90
7846;DHT22;3968;51.424;6.788;2023-09-19T09:39:58;18.70;99.90
7846;DHT22;3968;51.424;6.788;2023-09-19T09:42:34;18.70;99.90
7846;DHT22;3968;51.424;6.788;2023-09-19T09:45:22;18.70;99.90
7846;DHT22;3968;51.424;6.788;2023-09-19T09:48:03;18.80;99.90
7846;DHT22;3968;51.424;6.788;2023-09-19T09:50:36;18.90;99.90
7846;DHT22;3968;51.424;6.788;2023-09-19T09:53:29;18.90;99.90
7846;DHT22;3968;51.424;6.788;2023-09-19T09:56:07;18.90;99.90
7846;DHT22;3968;51.424;6.788;2023-09-19T09:58:49;19.00;99.90
7846;DHT22;3968;51.424;6.788;2023-09-19T10:01:17;19.10;99.90
7846;DHT22;3968;51.424;6.788;2023-09-19T10:03:43;19.10;99.90
7846;DHT22;3968;51.424;6.788;2023-09-19T10:06:14;19.10;99.90
7846;DHT22;3968;51.424;6.788;2023-09-19T10:09:17;19.30;99.90
7846;DHT22;3968;51.424;6.788;2023-09-19T10:11:47;19.30;99.90
7846;DHT22;3968;51.424;6.788;2023-09-19T10:14:25;19.40;99.90
7846;DHT22;3968;51.424;6.788;2023-09-19T10:16:57;19.50;99.90
7846;DHT22;3968;51.424;6.788;2023-09-19T10:19:55;19.50;99.90
7846;DHT22;3968;51.424;6.788;2023-09-19T10:22:24;19.60;99.90
7846;DHT22;3968;51.424;6.788;2023-09-19T10:24:53;19.60;99.90
7846;DHT22;3968;51.424;6.788;2023-09-19T10:27:23;19.60;99.90
7846;DHT22;3968;51.424;6.788;2023-09-19T10:29:52;19.70;99.90
7846;DHT22;3968;51.424;6.788;2023-09-19T10:32:22;19.80;99.90
7846;DHT22;3968;51.424;6.788;2023-09-19T10:34:49;19.80;99.90
7846;DHT22;3968;51.424;6.788;2023-09-19T10:37:20;19.90;99.90
7846;DHT22;3968;51.424;6.788;2023-09-19T10:39:52;19.80;99.90
7846;DHT22;3968;51.424;6.788;2023-09-19T10:42:20;19.90;99.90
7846;DHT22;3968;51.424;6.788;2023-09-19T10:44:47;19.90;99.90
7846;DHT22;3968;51.424;6.788;2023-09-19T10:47:19;19.90;99.90
7846;DHT22;3968;51.424;6.788;2023-09-19T10:49:46;19.90;99.90
7846;DHT22;3968;51.424;6.788;2023-09-19T10:52:14;20.00;99.90
7846;DHT22;3968;51.424;6.788;2023-09-19T10:54:48;20.00;99.90
7846;DHT22;3968;51.424;6.788;2023-09-19T10:57:21;20.00;99.90
7846;DHT22;3968;51.424;6.788;2023-09-19T11:00:08;20.10;99.90
7846;DHT22;3968;51.424;6.788;2023-09-19T11:05:37;20.10;99.90
7846;DHT22;3968;51.424;6.788;2023-09-19T11:08:07;20.10;99.90
7846;DHT22;3968;51.424;6.788;2023-09-19T11:10:50;20.00;99.90
7846;DHT22;3968;51.424;6.788;2023-09-19T11:13:26;20.00;99.90
7846;DHT22;3968;51.424;6.788;2023-09-19T11:24:28;20.20;99.90
7846;DHT22;3968;51.424;6.788;2023-09-19T11:27:13;20.20;99.90
7846;DHT22;3968;51.424;6.788;2023-09-19T11:29:40;20.30;99.90
7846;DHT22;3968;51.424;6.788;2023-09-19T11:32:06;20.30;99.90
7846;DHT22;3968;51.424;6.788;2023-09-19T11:40:08;20.40;99.90
7846;DHT22;3968;51.424;6.788;2023-09-19T11:42:47;20.50;99.90
7846;DHT22;3968;51.424;6.788;2023-09-19T11:48:23;20.30;99.90
7846;DHT22;3968;51.424;6.788;2023-09-19T11:50:51;20.30;99.90
7846;DHT22;3968;51.424;6.788;2023-09-19T11:53:18;20.30;99.90
7846;DHT22;3968;51.424;6.788;2023-09-19T11:55:45;20.20;99.90
7846;DHT22;3968;51.424;6.788;2023-09-19T11:58:12;20.20;99.90
7846;DHT22;3968;51.424;6.788;2023-09-19T12:00:40;20.30;99.90
7846;DHT22;3968;51.424;6.788;2023-09-19T12:03:10;20.30;99.90
7846;DHT22;3968;51.424;6.788;2023-09-19T12:05:37;20.30;99.90
7846;DHT22;3968;51.424;6.788;2023-09-19T12:08:04;20.30;99.90
7846;DHT22;3968;51.424;6.788;2023-09-19T12:10:33;20.40;99.90
7846;DHT22;3968;51.424;6.788;2023-09-19T12:13:01;20.40;94.40
7846;DHT22;3968;51.424;6.788;2023-09-19T12:15:28;20.40;95.30
7846;DHT22;3968;51.424;6.788;2023-09-19T12:20:45;20.40;96.00
7846;DHT22;3968;51.424;6.788;2023-09-19T12:23:15;20.40;91.70
7846;DHT22;3968;51.424;6.788;2023-09-19T12:25:42;20.40;92.30
7846;DHT22;3968;51.424;6.788;2023-09-19T12:28:12;20.50;93.30
7846;DHT22;3968;51.424;6.788;2023-09-19T12:30:38;20.40;91.70
7846;DHT22;3968;51.424;6.788;2023-09-19T12:33:16;20.40;88.40
7846;DHT22;3968;51.424;6.788;2023-09-19T12:35:42;20.50;88.90
7846;DHT22;3968;51.424;6.788;2023-09-19T12:38:10;20.50;85.80
7846;DHT22;3968;51.424;6.788;2023-09-19T12:40:38;20.50;81.20
7846;DHT22;3968;51.424;6.788;2023-09-19T12:43:07;20.50;80.80
7846;DHT22;3968;51.424;6.788;2023-09-19T12:45:35;20.50;88.10
7846;DHT22;3968;51.424;6.788;2023-09-19T12:53:27;20.60;79.70
7846;DHT22;3968;51.424;6.788;2023-09-19T12:55:59;20.60;77.50
7846;DHT22;3968;51.424;6.788;2023-09-19T12:58:25;20.70;81.80
7846;DHT22;3968;51.424;6.788;2023-09-19T13:00:50;20.70;86.70
7846;DHT22;3968;51.424;6.788;2023-09-19T13:06:00;20.80;87.10
7846;DHT22;3968;51.424;6.788;2023-09-19T13:08:32;20.80;90.30
7846;DHT22;3968;51.424;6.788;2023-09-19T13:11:11;20.80;92.00
7846;DHT22;3968;51.424;6.788;2023-09-19T13:13:42;20.70;84.50
7846;DHT22;3968;51.424;6.788;2023-09-19T13:16:09;20.60;89.50
7846;DHT22;3968;51.424;6.788;2023-09-19T13:18:46;20.60;85.30
7846;DHT22;3968;51.424;6.788;2023-09-19T13:21:14;20.60;79.30
7846;DHT22;3968;51.424;6.788;2023-09-19T13:23:53;20.60;82.70
7846;DHT22;3968;51.424;6.788;2023-09-19T13:26:27;20.60;81.90
7846;DHT22;3968;51.424;6.788;2023-09-19T13:28:54;20.50;87.60
7846;DHT22;3968;51.424;6.788;2023-09-19T13:31:20;20.50;86.00
7846;DHT22;3968;51.424;6.788;2023-09-19T13:33:47;20.60;90.50
7846;DHT22;3968;51.424;6.788;2023-09-19T13:36:13;20.60;92.60
7846;DHT22;3968;51.424;6.788;2023-09-19T13:38:40;20.50;94.20
7846;DHT22;3968;51.424;6.788;2023-09-19T13:41:10;20.50;94.40
7846;DHT22;3968;51.424;6.788;2023-09-19T13:43:37;20.50;97.30
7846;DHT22;3968;51.424;6.788;2023-09-19T13:46:04;20.40;98.00
7846;DHT22;3968;51.424;6.788;2023-09-19T13:48:30;20.40;99.70
7846;DHT22;3968;51.424;6.788;2023-09-19T13:50:56;20.40;99.70
7846;DHT22;3968;51.424;6.788;2023-09-19T13:53:22;20.40;99.90
7846;DHT22;3968;51.424;6.788;2023-09-19T13:55:48;20.40;99.90
7846;DHT22;3968;51.424;6.788;2023-09-19T13:58:14;20.30;99.90
7846;DHT22;3968;51.424;6.788;2023-09-19T14:00:40;20.30;99.90
7846;DHT22;3968;51.424;6.788;2023-09-19T14:03:06;20.30;99.90
7846;DHT22;3968;51.424;6.788;2023-09-19T14:05:32;20.40;99.90
7846;DHT22;3968;51.424;6.788;2023-09-19T14:07:58;20.40;99.90
7846;DHT22;3968;51.424;6.788;2023-09-19T14:10:25;20.50;99.90
7846;DHT22;3968;51.424;6.788;2023-09-19T14:12:52;20.50;99.90
7846;DHT22;3968;51.424;6.788;2023-09-19T14:15:18;20.40;99.90
7846;DHT22;3968;51.424;6.788;2023-09-19T14:17:43;20.40;99.90
7846;DHT22;3968;51.424;6.788;2023-09-19T14:20:12;20.30;99.90
7846;DHT22;3968;51.424;6.788;2023-09-19T14:22:38;20.30;99.90
7846;DHT22;3968;51.424;6.788;2023-09-19T14:25:04;20.30;99.90
7846;DHT22;3968;51.424;6.788;2023-09-19T14:27:30;20.30;99.90
7846;DHT22;3968;51.424;6.788;2023-09-19T14:29:56;20.30;99.90
7846;DHT22;3968;51.424;6.788;2023-09-19T14:32:23;20.30;99.90
7846;DHT22;3968;51.424;6.788;2023-09-19T14:34:48;20.30;99.90
7846;DHT22;3968;51.424;6.788;2023-09-19T14:37:14;20.40;99.90
7846;DHT22;3968;51.424;6.788;2023-09-19T14:39:42;20.40;99.90
7846;DHT22;3968;51.424;6.788;2023-09-19T14:42:10;20.40;99.90
7846;DHT22;3968;51.424;6.788;2023-09-19T14:44:36;20.50;99.90
7846;DHT22;3968;51.424;6.788;2023-09-19T14:47:05;20.40;99.90
7846;DHT22;3968;51.424;6.788;2023-09-19T14:49:36;20.40;99.90
7846;DHT22;3968;51.424;6.788;2023-09-19T14:52:09;20.40;99.90
7846;DHT22;3968;51.424;6.788;2023-09-19T14:54:35;20.40;99.90
7846;DHT22;3968;51.424;6.788;2023-09-19T14:57:03;20.30;99.90
7846;DHT22;3968;51.424;6.788;2023-09-19T14:59:33;20.30;99.90
7846;DHT22;3968;51.424;6.788;2023-09-19T15:02:05;20.30;99.90
7846;DHT22;3968;51.424;6.788;2023-09-19T15:04:32;20.30;99.90
7846;DHT22;3968;51.424;6.788;2023-09-19T15:06:59;20.20;99.90
7846;DHT22;3968;51.424;6.788;2023-09-19T15:09:25;20.20;99.90
7846;DHT22;3968;51.424;6.788;2023-09-19T15:11:55;20.20;99.90
7846;DHT22;3968;51.424;6.788;2023-09-19T15:14:21;20.20;99.90
7846;DHT22;3968;51.424;6.788;2023-09-19T15:16:48;20.20;99.90
7846;DHT22;3968;51.424;6.788;2023-09-19T15:19:14;20.20;99.90
7846;DHT22;3968;51.424;6.788;2023-09-19T15:21:41;20.20;99.90
7846;DHT22;3968;51.424;6.788;2023-09-19T15:24:07;20.20;99.90
7846;DHT22;3968;51.424;6.788;2023-09-19T15:26:36;20.20;99.90
7846;DHT22;3968;51.424;6.788;2023-09-19T15:29:08;20.20;99.90
7846;DHT22;3968;51.424;6.788;2023-09-19T15:31:35;20.20;99.90
7846;DHT22;3968;51.424;6.788;2023-09-19T15:34:04;20.30;99.90
7846;DHT22;3968;51.424;6.788;2023-09-19T15:36:31;20.30;99.90
7846;DHT22;3968;51.424;6.788;2023-09-19T15:41:37;20.40;99.90
7846;DHT22;3968;51.424;6.788;2023-09-19T15:44:14;20.40;99.90
7846;DHT22;3968;51.424;6.788;2023-09-19T15:46:41;20.60;99.90
7846;DHT22;3968;51.424;6.788;2023-09-19T15:49:07;20.60;99.90
7846;DHT22;3968;51.424;6.788;2023-09-19T15:51:34;20.60;99.90
7846;DHT22;3968;51.424;6.788;2023-09-19T15:54:01;20.50;99.90
7846;DHT22;3968;51.424;6.788;2023-09-19T15:56:33;20.50;99.90
7846;DHT22;3968;51.424;6.788;2023-09-19T15:59:00;20.40;99.90
7846;DHT22;3968;51.424;6.788;2023-09-19T16:01:26;20.30;99.90
7846;DHT22;3968;51.424;6.788;2023-09-19T16:03:53;20.30;99.90
7846;DHT22;3968;51.424;6.788;2023-09-19T16:06:25;20.30;99.90
7846;DHT22;3968;51.424;6.788;2023-09-19T16:08:53;20.20;99.90
7846;DHT22;3968;51.424;6.788;2023-09-19T16:11:19;20.20;99.90
7846;DHT22;3968;51.424;6.788;2023-09-19T16:13:49;20.10;99.90
7846;DHT22;3968;51.424;6.788;2023-09-19T16:16:17;20.10;99.90
7846;DHT22;3968;51.424;6.788;2023-09-19T16:18:55;20.00;99.90
7846;DHT22;3968;51.424;6.788;2023-09-19T16:21:24;20.00;99.90
7846;DHT22;3968;51.424;6.788;2023-09-19T16:23:52;19.90;99.90
7846;DHT22;3968;51.424;6.788;2023-09-19T16:26:20;20.00;99.90
7846;DHT22;3968;51.424;6.788;2023-09-19T16:28:49;19.90;99.90
7846;DHT22;3968;51.424;6.788;2023-09-19T16:31:15;19.90;99.90
7846;DHT22;3968;51.424;6.788;2023-09-19T16:33:45;19.90;99.90
7846;DHT22;3968;51.424;6.788;2023-09-19T16:38:38;19.80;99.90
7846;DHT22;3968;51.424;6.788;2023-09-19T16:41:05;19.80;99.90
7846;DHT22;3968;51.424;6.788;2023-09-19T16:43:31;19.80;99.90
7846;DHT22;3968;51.424;6.788;2023-09-19T16:46:05;19.80;99.90
7846;DHT22;3968;51.424;6.788;2023-09-19T16:48:34;19.80;99.90
7846;DHT22;3968;51.424;6.788;2023-09-19T16:51:02;19.80;99.90
7846;DHT22;3968;51.424;6.788;2023-09-19T16:53:33;19.70;99.90
7846;DHT22;3968;51.424;6.788;2023-09-19T16:56:05;19.70;99.90
7846;DHT22;3968;51.424;6.788;2023-09-19T16:58:37;19.70;99.90
7846;DHT22;3968;51.424;6.788;2023-09-19T17:01:06;19.70;99.90
7846;DHT22;3968;51.424;6.788;2023-09-19T17:03:37;19.60;99.90
7846;DHT22;3968;51.424;6.788;2023-09-19T17:06:08;19.60;99.90
7846;DHT22;3968;51.424;6.788;2023-09-19T17:08:36;19.60;99.90
7846;DHT22;3968;51.424;6.788;2023-09-19T17:11:11;19.60;99.90